createdAt,value
2019-01-31T00:01:51.501Z,0.20
2019-01-31T00:05:03.740Z,0.20
2019-01-31T00:08:09.397Z,0.20
2019-01-31T00:11:02.739Z,0.20
2019-01-31T00:13:54.817Z,0.20
2019-01-31T00:16:54.692Z,0.20
2019-01-31T00:19:53.687Z,0.20
2019-01-31T00:23:01.512Z,0.20
2019-01-31T00:26:00.986Z,0.20
2019-01-31T00:29:04.275Z,0.20
2019-01-31T00:32:06.278Z,0.10
2019-01-31T00:35:38.080Z,0.10
2019-01-31T00:38:37.436Z,0.10
2019-01-31T00:41:57.441Z,0.10
2019-01-31T00:44:53.014Z,0.20
2019-01-31T00:47:54.413Z,0.10
2019-01-31T00:50:39.434Z,0.10
2019-01-31T00:53:53.909Z,0.10
2019-01-31T00:56:54.388Z,0.10
2019-01-31T01:00:11.830Z,0.10
2019-01-31T01:02:57.058Z,0.00
2019-01-31T01:05:51.064Z,0.00
2019-01-31T01:08:41.257Z,0.00
2019-01-31T01:11:36.865Z,0.00
2019-01-31T01:14:42.021Z,0.00
2019-01-31T01:17:30.300Z,0.10
2019-01-31T01:20:15.991Z,0.10
2019-01-31T01:23:03.329Z,0.10
2019-01-31T01:26:16.587Z,0.10
2019-01-31T01:28:57.539Z,0.10
2019-01-31T01:31:59.168Z,0.10
2019-01-31T01:35:12.029Z,0.10
2019-01-31T01:38:13.154Z,0.10
2019-01-31T01:41:08.688Z,0.00
2019-01-31T01:43:59.431Z,0.00
2019-01-31T01:47:11.731Z,0.00
2019-01-31T01:49:47.731Z,0.00
2019-01-31T01:52:35.497Z,0.00
2019-01-31T01:55:23.805Z,0.00
2019-01-31T01:58:25.407Z,0.00
2019-01-31T02:01:24.685Z,0.00
2019-01-31T02:04:20.969Z,0.00
2019-01-31T02:07:06.571Z,-0.10
2019-01-31T02:10:16.579Z,-0.10
2019-01-31T02:13:34.995Z,-0.10
2019-01-31T02:16:26.037Z,-0.10
2019-01-31T02:19:48.494Z,-0.20
2019-01-31T02:22:49.257Z,-0.20
2019-01-31T02:25:26.224Z,-0.20
2019-01-31T02:28:30.857Z,-0.20
2019-01-31T02:31:39.641Z,-0.20
2019-01-31T02:35:03.847Z,-0.20
2019-01-31T02:37:57.834Z,-0.20
2019-01-31T02:41:04.288Z,-0.20
2019-01-31T02:44:35.700Z,-0.20
2019-01-31T02:47:39.896Z,-0.20
2019-01-31T02:50:38.916Z,-0.20
2019-01-31T02:54:04.469Z,-0.10
2019-01-31T02:57:01.381Z,-0.10
2019-01-31T02:59:53.883Z,-0.10
2019-01-31T03:02:51.837Z,-0.10
2019-01-31T03:06:26.471Z,-0.10
2019-01-31T03:09:32.389Z,-0.10
2019-01-31T03:12:14.140Z,-0.20
2019-01-31T03:14:52.524Z,-0.20
2019-01-31T03:17:43.395Z,-0.30
2019-01-31T03:20:47.059Z,-0.30
2019-01-31T03:23:32.927Z,-0.40
2019-01-31T03:26:08.879Z,-0.30
2019-01-31T03:29:14.384Z,-0.40
2019-01-31T03:31:59.951Z,-0.40
2019-01-31T03:34:54.637Z,-0.40
2019-01-31T03:37:57.566Z,-0.40
2019-01-31T03:41:06.783Z,-0.50
2019-01-31T03:44:05.673Z,-0.50
2019-01-31T03:47:02.197Z,-0.50
2019-01-31T03:49:58.108Z,-0.60
2019-01-31T03:53:08.489Z,-0.60
2019-01-31T03:55:58.789Z,-0.60
2019-01-31T03:59:00.905Z,-0.60
2019-01-31T04:02:08.635Z,-0.60
2019-01-31T04:04:55.832Z,-0.60
2019-01-31T04:07:25.137Z,-0.60
2019-01-31T04:09:54.162Z,-0.70
2019-01-31T04:12:23.010Z,-0.70
2019-01-31T04:14:51.968Z,-0.70
2019-01-31T04:17:20.920Z,-0.70
2019-01-31T04:19:50.034Z,-0.80
2019-01-31T04:22:19.272Z,-0.70
2019-01-31T04:24:48.528Z,-0.80
2019-01-31T04:27:17.682Z,-0.80
2019-01-31T04:29:46.676Z,-0.80
2019-01-31T04:32:16.138Z,-0.80
2019-01-31T04:34:45.540Z,-0.80
2019-01-31T04:37:33.578Z,-0.80
2019-01-31T04:40:02.862Z,-0.80
2019-01-31T04:42:31.889Z,-0.90
2019-01-31T04:45:00.933Z,-0.90
2019-01-31T04:47:29.950Z,-0.90
2019-01-31T04:49:58.878Z,-0.90
2019-01-31T04:52:28.839Z,-0.90
2019-01-31T04:54:58.644Z,-0.90
2019-01-31T04:57:27.671Z,-0.90
2019-01-31T05:00:07.216Z,-0.90
2019-01-31T05:02:36.305Z,-1.00
2019-01-31T05:05:07.464Z,-0.90
2019-01-31T05:07:36.558Z,-0.90
2019-01-31T05:10:07.446Z,-0.90
2019-01-31T05:12:36.462Z,-0.90
2019-01-31T05:15:07.329Z,-0.90
2019-01-31T05:17:36.156Z,-0.90
2019-01-31T05:20:07.156Z,-1.00
2019-01-31T05:22:36.091Z,-1.00
2019-01-31T05:25:06.356Z,-1.00
2019-01-31T05:27:35.276Z,-1.00
2019-01-31T05:30:05.153Z,-1.00
2019-01-31T05:32:35.098Z,-1.00
2019-01-31T05:35:04.328Z,-1.00
2019-01-31T05:37:33.528Z,-1.00
2019-01-31T05:40:02.840Z,-1.00
2019-01-31T05:42:31.820Z,-1.00
2019-01-31T05:45:00.670Z,-1.10
2019-01-31T05:47:29.774Z,-1.10
2019-01-31T05:49:58.785Z,-1.10
2019-01-31T05:52:27.875Z,-1.10
2019-01-31T05:54:56.793Z,-1.10
2019-01-31T05:57:25.714Z,-1.00
2019-01-31T05:59:54.962Z,-1.00
2019-01-31T06:02:23.963Z,-1.00
2019-01-31T06:04:53.928Z,-1.00
2019-01-31T06:07:23.177Z,-1.00
2019-01-31T06:09:52.257Z,-0.90
2019-01-31T06:12:21.686Z,-1.00
2019-01-31T06:14:50.719Z,-1.00
2019-01-31T06:17:20.451Z,-1.00
2019-01-31T06:19:51.331Z,-1.00
2019-01-31T06:22:20.088Z,-1.10
2019-01-31T06:24:49.692Z,-1.10
2019-01-31T06:27:18.717Z,-1.10
2019-01-31T06:29:47.802Z,-1.10
2019-01-31T06:32:16.673Z,-1.10
2019-01-31T06:34:45.757Z,-1.10
2019-01-31T06:37:14.720Z,-1.10
2019-01-31T06:39:43.439Z,-1.10
2019-01-31T06:42:12.329Z,-1.10
2019-01-31T06:44:41.282Z,-1.10
2019-01-31T06:47:10.323Z,-1.10
2019-01-31T06:49:39.101Z,-1.10
2019-01-31T06:52:07.991Z,-1.10
2019-01-31T06:54:36.850Z,-1.10
2019-01-31T06:57:05.961Z,-1.10
2019-01-31T06:59:34.903Z,-1.10
2019-01-31T07:02:04.058Z,-1.10
2019-01-31T07:04:33.197Z,-1.10
2019-01-31T07:07:02.040Z,-1.10
2019-01-31T07:09:32.976Z,-1.10
2019-01-31T07:12:01.656Z,-1.10
2019-01-31T07:14:30.428Z,-1.10
2019-01-31T07:16:59.308Z,-1.10
2019-01-31T07:19:28.407Z,-1.10
2019-01-31T07:21:57.399Z,-1.00
2019-01-31T07:24:26.468Z,-1.00
2019-01-31T07:26:55.542Z,-1.00
2019-01-31T07:29:24.552Z,-1.00
2019-01-31T07:31:53.553Z,-1.00
2019-01-31T07:34:22.449Z,-1.00
2019-01-31T07:36:51.565Z,-0.90
2019-01-31T07:39:20.529Z,-0.90
2019-01-31T07:41:49.755Z,-0.90
2019-01-31T07:44:18.638Z,-0.90
2019-01-31T07:46:47.733Z,-0.90
2019-01-31T07:49:18.083Z,-0.80
2019-01-31T07:51:47.136Z,-0.80
2019-01-31T07:54:16.026Z,-0.70
2019-01-31T07:56:45.045Z,-0.60
2019-01-31T07:59:13.914Z,-0.70
2019-01-31T08:01:42.921Z,-0.60
2019-01-31T08:04:11.966Z,-0.60
2019-01-31T08:06:41.254Z,-0.50
2019-01-31T08:09:10.740Z,-0.40
2019-01-31T08:11:39.642Z,-0.30
2019-01-31T08:14:09.120Z,-0.30
2019-01-31T08:16:38.136Z,-0.30
2019-01-31T08:19:07.022Z,-0.30
2019-01-31T08:21:36.061Z,-0.20
2019-01-31T08:24:05.339Z,-0.10
2019-01-31T08:26:34.136Z,0.00
2019-01-31T08:29:03.401Z,-0.10
2019-01-31T08:31:32.579Z,-0.10
2019-01-31T08:34:01.650Z,0.00
2019-01-31T08:36:30.782Z,0.00
2019-01-31T08:39:00.239Z,0.30
2019-01-31T08:41:29.168Z,0.40
2019-01-31T08:43:58.351Z,0.90
2019-01-31T08:46:27.358Z,1.30
2019-01-31T08:48:57.012Z,1.80
2019-01-31T08:51:26.006Z,2.40
2019-01-31T08:53:59.072Z,3.40
2019-01-31T08:56:28.242Z,3.60
2019-01-31T08:58:57.548Z,3.90
2019-01-31T09:01:26.491Z,4.60
2019-01-31T09:03:55.649Z,4.70
2019-01-31T09:06:24.662Z,4.70
2019-01-31T09:08:53.789Z,4.50
2019-01-31T09:11:24.217Z,5.10
2019-01-31T09:13:53.239Z,5.10
2019-01-31T09:16:22.064Z,5.40
2019-01-31T09:18:52.383Z,5.20
2019-01-31T09:21:42.131Z,4.70
2019-01-31T09:24:49.584Z,4.70
2019-01-31T09:27:50.013Z,5.80
2019-01-31T09:30:57.748Z,6.90
2019-01-31T09:33:42.152Z,6.30
2019-01-31T09:36:46.212Z,6.40
2019-01-31T09:39:52.741Z,6.70
2019-01-31T09:42:47.191Z,7.10
2019-01-31T09:46:02.628Z,7.20
2019-01-31T09:49:14.780Z,7.70
2019-01-31T09:52:12.802Z,7.20
2019-01-31T09:55:22.947Z,7.00
2019-01-31T09:58:15.747Z,6.70
2019-01-31T10:01:23.476Z,7.40
2019-01-31T10:04:29.554Z,7.60
2019-01-31T10:07:16.811Z,7.90
2019-01-31T10:10:26.435Z,7.70
2019-01-31T10:13:48.148Z,7.20
2019-01-31T10:16:40.481Z,7.50
2019-01-31T10:19:45.688Z,7.30
2019-01-31T10:22:40.552Z,7.20
2019-01-31T10:25:37.690Z,7.20
2019-01-31T10:28:38.472Z,7.60
2019-01-31T10:32:04.030Z,7.50
2019-01-31T10:35:12.827Z,7.80
2019-01-31T10:38:30.739Z,7.80
2019-01-31T10:41:20.812Z,7.70
2019-01-31T10:44:26.363Z,8.30
2019-01-31T10:47:22.381Z,8.40
2019-01-31T10:50:24.084Z,8.40
2019-01-31T10:53:39.080Z,8.50
2019-01-31T10:56:47.908Z,7.80
2019-01-31T10:59:24.560Z,8.70
2019-01-31T11:02:40.008Z,8.70
2019-01-31T11:05:45.083Z,8.90
2019-01-31T11:09:00.011Z,8.70
2019-01-31T11:11:45.045Z,8.20
2019-01-31T11:15:10.313Z,8.10
2019-01-31T11:18:06.080Z,7.90
2019-01-31T11:21:08.317Z,8.50
2019-01-31T11:24:16.330Z,8.50
2019-01-31T11:27:18.582Z,8.00
2019-01-31T11:30:13.956Z,7.40
2019-01-31T11:33:36.747Z,7.40
2019-01-31T11:36:59.095Z,7.60
2019-01-31T11:40:18.884Z,8.10
2019-01-31T11:43:28.267Z,8.30
2019-01-31T11:46:19.397Z,8.60
2019-01-31T11:49:37.145Z,9.70
2019-01-31T11:52:42.280Z,9.20
2019-01-31T11:55:38.445Z,8.50
2019-01-31T11:58:49.938Z,9.20
2019-01-31T12:01:18.867Z,9.30
2019-01-31T12:03:53.329Z,9.20
2019-01-31T12:06:22.396Z,9.20
2019-01-31T12:08:51.434Z,8.80
2019-01-31T12:11:20.487Z,8.60
2019-01-31T12:13:49.598Z,9.10
2019-01-31T12:16:18.827Z,9.60
2019-01-31T12:18:47.952Z,9.00
2019-01-31T12:21:17.305Z,8.90
2019-01-31T12:23:46.390Z,9.00
2019-01-31T12:26:15.256Z,8.80
2019-01-31T12:28:44.835Z,8.80
2019-01-31T12:31:14.053Z,9.40
2019-01-31T12:33:43.394Z,9.30
2019-01-31T12:36:13.070Z,9.00
2019-01-31T12:38:42.036Z,9.70
2019-01-31T12:41:10.862Z,10.60
2019-01-31T12:43:40.096Z,11.00
2019-01-31T12:46:09.015Z,10.30
2019-01-31T12:48:38.087Z,9.30
2019-01-31T12:51:07.057Z,9.10
2019-01-31T12:53:35.988Z,8.20
2019-01-31T12:56:05.492Z,8.70
2019-01-31T12:58:34.454Z,8.50
2019-01-31T13:01:03.858Z,7.80
2019-01-31T13:03:32.831Z,8.50
2019-01-31T13:06:02.612Z,8.80
2019-01-31T13:08:32.523Z,8.30
2019-01-31T13:11:01.825Z,8.60
2019-01-31T13:13:31.718Z,8.10
2019-01-31T13:16:00.792Z,8.20
2019-01-31T13:18:30.369Z,8.10
2019-01-31T13:20:59.428Z,7.60
2019-01-31T13:23:28.411Z,7.40
2019-01-31T13:25:57.525Z,7.20
2019-01-31T13:28:27.189Z,6.80
2019-01-31T13:30:56.117Z,6.50
2019-01-31T13:33:25.132Z,6.70
2019-01-31T13:35:54.176Z,7.40
2019-01-31T13:38:23.000Z,7.50
2019-01-31T13:40:52.169Z,7.90
2019-01-31T13:43:20.991Z,7.80
2019-01-31T13:45:50.043Z,7.90
2019-01-31T13:48:19.435Z,7.30
2019-01-31T13:50:51.500Z,7.20
2019-01-31T13:53:20.948Z,7.20
2019-01-31T13:55:50.039Z,7.50
2019-01-31T13:58:18.952Z,6.60
2019-01-31T14:00:48.550Z,6.60
2019-01-31T14:03:17.895Z,6.50
2019-01-31T14:05:46.914Z,6.30
2019-01-31T14:08:15.947Z,6.30
2019-01-31T14:10:44.872Z,6.10
2019-01-31T14:13:14.020Z,5.80
2019-01-31T14:15:43.024Z,5.70
2019-01-31T14:18:11.885Z,5.50
2019-01-31T14:20:40.732Z,5.30
2019-01-31T14:23:09.653Z,5.10
2019-01-31T14:25:38.859Z,5.00
2019-01-31T14:28:07.869Z,4.90
2019-01-31T14:30:38.814Z,4.90
2019-01-31T14:33:18.804Z,5.00
2019-01-31T14:35:48.114Z,5.10
2019-01-31T14:38:17.283Z,5.00
2019-01-31T14:40:46.553Z,4.90
2019-01-31T14:43:16.108Z,4.70
2019-01-31T14:45:45.554Z,4.70
2019-01-31T14:48:14.622Z,4.60
2019-01-31T14:50:44.602Z,4.50
2019-01-31T14:53:13.466Z,4.50
2019-01-31T14:55:42.529Z,4.40
2019-01-31T14:58:11.994Z,4.40
2019-01-31T15:00:41.565Z,4.20
2019-01-31T15:03:10.518Z,3.90
2019-01-31T15:05:39.518Z,4.00
2019-01-31T15:08:09.287Z,3.90
2019-01-31T15:10:38.218Z,3.80
2019-01-31T15:13:07.659Z,3.70
2019-01-31T15:15:36.952Z,3.60
2019-01-31T15:18:07.629Z,3.60
2019-01-31T15:20:39.330Z,3.60
2019-01-31T15:23:08.401Z,3.40
2019-01-31T15:25:37.350Z,3.30
2019-01-31T15:28:06.587Z,3.20
2019-01-31T15:30:36.021Z,3.10
2019-01-31T15:33:08.571Z,3.00
2019-01-31T15:35:37.481Z,2.90
2019-01-31T15:38:07.015Z,2.80
2019-01-31T15:40:38.853Z,2.70
2019-01-31T15:43:08.965Z,2.70
2019-01-31T15:45:38.044Z,2.60
2019-01-31T15:48:10.551Z,2.50
2019-01-31T15:50:38.923Z,2.50
2019-01-31T15:53:08.142Z,2.40
2019-01-31T15:55:37.534Z,2.40
2019-01-31T15:58:08.269Z,2.40
2019-01-31T16:00:42.475Z,2.40
2019-01-31T16:03:13.884Z,2.30
2019-01-31T16:05:43.478Z,2.30
2019-01-31T16:08:17.134Z,2.30
2019-01-31T16:10:46.636Z,2.30
2019-01-31T16:13:16.449Z,2.40
2019-01-31T16:15:46.095Z,2.40
2019-01-31T16:18:15.220Z,2.40
2019-01-31T16:20:44.291Z,2.40
2019-01-31T16:23:14.740Z,2.40
2019-01-31T16:25:47.479Z,2.30
2019-01-31T16:28:15.127Z,2.40
2019-01-31T16:30:44.091Z,2.30
2019-01-31T16:33:14.721Z,2.20
2019-01-31T16:35:44.609Z,2.10
2019-01-31T16:38:13.840Z,2.10
2019-01-31T16:40:44.011Z,2.00
2019-01-31T16:43:13.117Z,2.00
2019-01-31T16:45:42.335Z,2.00
2019-01-31T16:48:11.414Z,2.00
2019-01-31T16:50:40.325Z,2.00
2019-01-31T16:53:09.974Z,2.00
2019-01-31T16:55:38.860Z,1.90
2019-01-31T16:58:08.437Z,1.90
2019-01-31T17:00:37.522Z,1.90
2019-01-31T17:03:07.841Z,1.90
2019-01-31T17:05:37.037Z,1.90
2019-01-31T17:08:07.302Z,1.90
2019-01-31T17:10:36.364Z,1.80
2019-01-31T17:13:06.308Z,1.80
2019-01-31T17:15:36.238Z,1.80
2019-01-31T17:18:06.895Z,1.80
2019-01-31T17:20:43.783Z,1.80
2019-01-31T17:23:12.931Z,1.70
2019-01-31T17:25:43.062Z,1.70
2019-01-31T17:28:11.948Z,1.70
2019-01-31T17:30:40.834Z,1.70
2019-01-31T17:33:10.501Z,1.70
2019-01-31T17:35:39.677Z,1.70
2019-01-31T17:38:09.136Z,1.70
2019-01-31T17:40:39.921Z,1.70
2019-01-31T17:43:09.909Z,1.60
2019-01-31T17:45:38.985Z,1.60
2019-01-31T17:48:10.640Z,1.50
2019-01-31T17:50:39.634Z,1.50
2019-01-31T17:53:08.654Z,1.50
2019-01-31T17:55:37.448Z,1.50
2019-01-31T17:58:08.817Z,1.40
2019-01-31T18:00:46.131Z,1.40
2019-01-31T18:03:15.649Z,1.40
2019-01-31T18:05:44.567Z,1.30
2019-01-31T18:08:13.758Z,1.30
2019-01-31T18:10:43.193Z,1.30
2019-01-31T18:13:12.691Z,1.30
2019-01-31T18:15:42.621Z,1.20
2019-01-31T18:18:12.033Z,1.20
2019-01-31T18:20:41.462Z,1.20
2019-01-31T18:23:10.479Z,1.20
2019-01-31T18:25:39.534Z,1.10
2019-01-31T18:28:08.703Z,1.10
2019-01-31T18:30:37.814Z,1.00
2019-01-31T18:33:16.215Z,1.00
2019-01-31T18:35:45.139Z,1.00
2019-01-31T18:38:14.267Z,0.90
2019-01-31T18:40:43.449Z,0.90
2019-01-31T18:43:12.487Z,0.90
2019-01-31T18:45:52.664Z,0.80
2019-01-31T18:48:12.646Z,0.90
2019-01-31T18:50:42.690Z,0.90
2019-01-31T18:53:11.667Z,1.00
2019-01-31T18:55:41.307Z,1.00
2019-01-31T18:58:10.553Z,1.00
2019-01-31T19:00:42.629Z,1.00
2019-01-31T19:03:12.384Z,0.90
2019-01-31T19:05:41.996Z,1.00
2019-01-31T19:08:11.148Z,0.90
2019-01-31T19:10:43.964Z,0.70
2019-01-31T19:13:10.816Z,0.60
2019-01-31T19:15:40.202Z,0.50
2019-01-31T19:18:09.503Z,0.50
2019-01-31T19:20:39.671Z,0.40
2019-01-31T19:23:09.530Z,0.40
2019-01-31T19:25:39.668Z,0.40
2019-01-31T19:28:13.124Z,0.40
2019-01-31T19:30:42.206Z,0.40
2019-01-31T19:33:11.635Z,0.40
2019-01-31T19:35:40.579Z,0.50
2019-01-31T19:38:10.300Z,0.40
2019-01-31T19:40:44.288Z,0.40
2019-01-31T19:43:13.228Z,0.30
2019-01-31T19:45:49.983Z,0.30
2019-01-31T19:48:19.023Z,0.20
2019-01-31T19:50:48.020Z,0.30
2019-01-31T19:53:16.855Z,0.30
2019-01-31T19:55:45.701Z,0.30
2019-01-31T19:58:14.745Z,0.30
2019-01-31T20:00:43.999Z,0.30
2019-01-31T20:03:12.955Z,0.30
2019-01-31T20:05:41.977Z,0.50
2019-01-31T20:08:12.033Z,0.40
2019-01-31T20:10:41.223Z,0.50
2019-01-31T20:13:10.616Z,0.50
2019-01-31T20:15:40.039Z,0.40
2019-01-31T20:18:09.452Z,0.40
2019-01-31T20:20:38.573Z,0.40
2019-01-31T20:23:10.856Z,0.40
2019-01-31T20:25:39.701Z,0.40
2019-01-31T20:28:09.111Z,0.30
2019-01-31T20:30:38.207Z,0.30
2019-01-31T20:33:07.356Z,0.30
2019-01-31T20:35:37.275Z,0.30
2019-01-31T20:38:06.315Z,0.30
2019-01-31T20:40:40.320Z,0.30
2019-01-31T20:43:09.896Z,0.30
2019-01-31T20:45:38.968Z,0.30
2019-01-31T20:48:08.988Z,0.30
2019-01-31T20:50:40.143Z,0.30
2019-01-31T20:53:09.561Z,0.40
2019-01-31T20:55:38.864Z,0.30
2019-01-31T20:58:07.976Z,0.40
2019-01-31T21:00:42.203Z,0.30
2019-01-31T21:03:11.196Z,0.30
2019-01-31T21:05:40.743Z,0.30
2019-01-31T21:08:11.148Z,0.30
2019-01-31T21:10:41.023Z,0.20
2019-01-31T21:13:10.299Z,0.20
2019-01-31T21:15:39.584Z,0.20
2019-01-31T21:18:10.623Z,0.10
2019-01-31T21:20:40.188Z,0.20
2019-01-31T21:23:09.672Z,0.10
2019-01-31T21:25:38.688Z,0.10
2019-01-31T21:28:07.714Z,0.10
2019-01-31T21:30:41.816Z,0.00
2019-01-31T21:33:11.790Z,0.00
2019-01-31T21:35:40.970Z,0.00
2019-01-31T21:38:10.175Z,-0.10
2019-01-31T21:40:40.127Z,-0.10
2019-01-31T21:43:09.264Z,-0.10
2019-01-31T21:45:38.724Z,-0.10
2019-01-31T21:48:09.303Z,-0.10
2019-01-31T21:50:38.567Z,-0.20
2019-01-31T21:53:08.211Z,-0.20
2019-01-31T21:55:40.928Z,-0.30
2019-01-31T21:58:39.144Z,-0.30
2019-01-31T22:01:08.776Z,-0.30
2019-01-31T22:03:38.008Z,-0.30
2019-01-31T22:06:07.066Z,-0.30
2019-01-31T22:08:36.179Z,-0.40
2019-01-31T22:11:05.141Z,-0.40
2019-01-31T22:13:34.041Z,-0.30
2019-01-31T22:16:03.255Z,-0.30
2019-01-31T22:18:32.132Z,-0.40
2019-01-31T22:21:01.274Z,-0.30
2019-01-31T22:23:30.074Z,-0.30
2019-01-31T22:25:58.936Z,-0.20
2019-01-31T22:28:27.856Z,-0.20
2019-01-31T22:30:56.744Z,-0.10
2019-01-31T22:33:25.864Z,-0.10
2019-01-31T22:35:54.976Z,-0.10
2019-01-31T22:38:23.702Z,-0.10
2019-01-31T22:40:52.843Z,-0.10
2019-01-31T22:43:21.961Z,-0.10
2019-01-31T22:45:51.133Z,-0.10
2019-01-31T22:48:19.961Z,-0.10
2019-01-31T22:50:48.836Z,-0.10
2019-01-31T22:53:17.635Z,0.00
2019-01-31T22:55:46.460Z,0.00
2019-01-31T22:58:15.200Z,0.00
2019-01-31T23:01:13.262Z,0.00
2019-01-31T23:03:42.124Z,0.00
2019-01-31T23:06:13.145Z,0.00
2019-01-31T23:08:41.985Z,0.10
2019-01-31T23:11:10.751Z,0.10
2019-01-31T23:13:39.688Z,0.10
2019-01-31T23:16:08.615Z,0.00
2019-01-31T23:18:37.379Z,0.00
2019-01-31T23:21:06.419Z,0.00
2019-01-31T23:23:35.583Z,0.00
2019-01-31T23:26:04.904Z,-0.10
2019-01-31T23:28:34.399Z,-0.10
2019-01-31T23:31:06.040Z,0.00
2019-01-31T23:33:34.808Z,-0.10
2019-01-31T23:36:04.085Z,-0.10
2019-01-31T23:38:32.989Z,-0.10
2019-01-31T23:41:01.867Z,-0.20
2019-01-31T23:43:30.679Z,-0.20
2019-01-31T23:45:59.538Z,-0.20
2019-01-31T23:48:28.311Z,-0.20
2019-01-31T23:50:57.266Z,-0.20
2019-01-31T23:53:26.387Z,-0.30
2019-01-31T23:55:55.160Z,-0.30
2019-01-31T23:58:23.948Z,-0.30
